Time;durP1;ratioP1;P1;durP2;ratioP2;P2;SDS_P1;SDS_P2;PMS_P1;PMS_P2;Temp;Humidity;BMP_temperature;BMP_pressure;BME280_temperature;BME280_humidity;BME280_pressure;Samples;Min_cycle;Max_cycle;Signal;HPM_P1;HPM_P2
2023/05/04 00:01:33;;;;;;;;;;;6.00;99.90;;;;;;5109556;28;19924;-79
2023/05/04 00:03:59;;;;;;;;;;;5.90;99.90;;;;;;5073350;28;19932;-79
2023/05/04 00:06:24;;;;;;;;;;;5.90;99.90;;;;;;5089518;28;20015;-79
2023/05/04 00:08:50;;;;;;;;;;;5.90;99.90;;;;;;5072104;28;19932;-79
2023/05/04 00:11:16;;;;;;;;;;;5.90;99.90;;;;;;5074218;28;19997;-78
2023/05/04 00:13:41;;;;;;;;;;;5.90;99.90;;;;;;5071015;28;20396;-78
2023/05/04 00:16:07;;;;;;;;;;;5.90;99.90;;;;;;5075203;28;19975;-78
2023/05/04 00:18:33;;;;;;;;;;;5.80;99.90;;;;;;5074697;28;19924;-78
2023/05/04 00:20:58;;;;;;;;;;;5.80;99.90;;;;;;5040056;28;19964;-78
2023/05/04 00:23:24;;;;;;;;;;;5.80;99.90;;;;;;5068732;28;19970;-79
2023/05/04 00:25:49;;;;;;;;;;;5.80;99.90;;;;;;5067728;28;20015;-78
2023/05/04 00:28:15;;;;;;;;;;;5.70;99.90;;;;;;5072871;28;19947;-79
2023/05/04 00:30:41;;;;;;;;;;;5.70;99.90;;;;;;5075211;28;19928;-78
2023/05/04 00:33:06;;;;;;;;;;;5.70;99.90;;;;;;5076188;28;19925;-78
2023/05/04 00:35:32;;;;;;;;;;;5.70;99.90;;;;;;5072444;28;19933;-78
2023/05/04 00:37:57;;;;;;;;;;;5.70;99.90;;;;;;5077060;28;19935;-78
2023/05/04 00:40:23;;;;;;;;;;;5.60;99.90;;;;;;5092182;28;19929;-79
2023/05/04 00:42:49;;;;;;;;;;;5.70;99.90;;;;;;5059726;28;19925;-78
2023/05/04 00:45:14;;;;;;;;;;;5.70;99.90;;;;;;5068725;28;19939;-78
2023/05/04 00:47:40;;;;;;;;;;;5.60;99.90;;;;;;5073084;28;19928;-78
2023/05/04 00:50:07;;;;;;;;;;;5.60;99.90;;;;;;5075792;28;19928;-78
2023/05/04 00:52:34;;;;;;;;;;;5.60;99.90;;;;;;5062280;28;19967;-78
2023/05/04 00:55:00;;;;;;;;;;;5.50;99.90;;;;;;5057947;28;19936;-78
2023/05/04 00:57:25;;;;;;;;;;;5.50;99.90;;;;;;5085213;28;20529;-78
2023/05/04 00:59:52;;;;;;;;;;;5.50;99.90;;;;;;5048954;28;19929;-78
2023/05/04 01:02:18;;;;;;;;;;;5.50;99.90;;;;;;5094005;28;19924;-78
2023/05/04 01:04:44;;;;;;;;;;;5.40;99.90;;;;;;5086179;28;19932;-78
2023/05/04 01:07:09;;;;;;;;;;;5.40;99.90;;;;;;5072957;28;19928;-78
2023/05/04 01:09:41;;;;;;;;;;;5.40;99.90;;;;;;5089796;28;19925;-79
2023/05/04 01:12:13;;;;;;;;;;;5.40;99.90;;;;;;5101227;28;19946;-78
2023/05/04 01:14:42;;;;;;;;;;;5.40;99.90;;;;;;5088292;28;20132;-78
2023/05/04 01:17:08;;;;;;;;;;;5.40;99.90;;;;;;5058145;28;19924;-78
2023/05/04 01:19:33;;;;;;;;;;;5.40;99.90;;;;;;5091513;28;20329;-78
2023/05/04 01:21:59;;;;;;;;;;;5.30;99.90;;;;;;5089944;28;20336;-79
2023/05/04 01:24:25;;;;;;;;;;;5.30;99.90;;;;;;5072772;28;20058;-78
2023/05/04 01:26:58;;;;;;;;;;;5.30;99.90;;;;;;5092294;28;19932;-79
2023/05/04 01:29:26;;;;;;;;;;;5.30;99.90;;;;;;5089974;28;19928;-78
2023/05/04 01:31:52;;;;;;;;;;;5.30;99.90;;;;;;5094271;28;19932;-78
2023/05/04 01:34:18;;;;;;;;;;;5.30;99.90;;;;;;5077090;28;19969;-78
2023/05/04 01:36:44;;;;;;;;;;;5.30;99.90;;;;;;5077003;28;19967;-78
2023/05/04 01:39:10;;;;;;;;;;;5.30;99.90;;;;;;5093918;28;19928;-78
2023/05/04 01:41:36;;;;;;;;;;;5.30;99.90;;;;;;5097536;28;19924;-78
2023/05/04 01:44:02;;;;;;;;;;;5.30;99.90;;;;;;5059629;28;21914;-79
2023/05/04 01:46:28;;;;;;;;;;;5.30;99.90;;;;;;5079333;28;20398;-79
2023/05/04 01:48:54;;;;;;;;;;;5.30;99.90;;;;;;5076607;28;19942;-78
2023/05/04 01:51:20;;;;;;;;;;;5.20;99.90;;;;;;5079771;28;20330;-78
2023/05/04 01:53:45;;;;;;;;;;;5.30;99.90;;;;;;5076172;28;19934;-79
2023/05/04 01:56:11;;;;;;;;;;;5.30;99.90;;;;;;5042963;28;19933;-79
2023/05/04 01:58:36;;;;;;;;;;;5.20;99.90;;;;;;5093807;28;19924;-79
2023/05/04 02:01:02;;;;;;;;;;;5.20;99.90;;;;;;5095200;28;20286;-78
2023/05/04 02:03:28;;;;;;;;;;;5.20;99.90;;;;;;5077558;28;20403;-78
2023/05/04 02:05:53;;;;;;;;;;;5.20;99.90;;;;;;5039848;28;19925;-78
2023/05/04 02:08:19;;;;;;;;;;;5.20;99.90;;;;;;5075761;28;20493;-79
2023/05/04 02:10:44;;;;;;;;;;;5.20;99.90;;;;;;5044637;28;20033;-78
2023/05/04 02:13:10;;;;;;;;;;;5.20;99.90;;;;;;5076902;28;20470;-78
2023/05/04 02:15:36;;;;;;;;;;;5.20;99.90;;;;;;5095081;28;20214;-78
2023/05/04 02:18:01;;;;;;;;;;;5.20;99.90;;;;;;5044644;28;19929;-78
2023/05/04 02:20:27;;;;;;;;;;;5.20;99.90;;;;;;5079350;28;19925;-78
2023/05/04 02:22:52;;;;;;;;;;;5.20;99.90;;;;;;5076456;28;20493;-78
2023/05/04 02:25:18;;;;;;;;;;;5.20;99.90;;;;;;5076339;28;20471;-78
2023/05/04 02:27:44;;;;;;;;;;;5.20;99.90;;;;;;5091423;28;20361;-78
2023/05/04 02:30:09;;;;;;;;;;;5.20;99.90;;;;;;5077987;28;19924;-78
2023/05/04 02:32:35;;;;;;;;;;;5.20;99.90;;;;;;5093887;28;19924;-78
2023/05/04 02:35:01;;;;;;;;;;;5.20;99.90;;;;;;5093142;28;19932;-78
2023/05/04 02:37:27;;;;;;;;;;;5.20;99.90;;;;;;5094585;28;19932;-78
2023/05/04 02:39:52;;;;;;;;;;;5.20;99.90;;;;;;5073034;28;20004;-78
2023/05/04 02:42:18;;;;;;;;;;;5.20;99.90;;;;;;5061185;28;20367;-78
2023/05/04 02:44:43;;;;;;;;;;;5.30;99.90;;;;;;5058258;28;19924;-78
2023/05/04 02:47:09;;;;;;;;;;;5.20;99.90;;;;;;5093658;28;19986;-78
2023/05/04 02:49:35;;;;;;;;;;;5.30;99.90;;;;;;5076193;28;20568;-78
2023/05/04 02:52:00;;;;;;;;;;;5.30;99.90;;;;;;5060249;28;19931;-78
2023/05/04 02:54:26;;;;;;;;;;;5.30;99.90;;;;;;5076863;28;19925;-78
2023/05/04 02:56:51;;;;;;;;;;;5.30;99.90;;;;;;5027433;28;20019;-78
2023/05/04 02:59:17;;;;;;;;;;;5.30;99.90;;;;;;5076128;28;19924;-78
2023/05/04 03:01:43;;;;;;;;;;;5.40;99.90;;;;;;5092644;28;19947;-78
2023/05/04 03:04:08;;;;;;;;;;;5.40;99.90;;;;;;5061077;28;19965;-78
2023/05/04 03:06:35;;;;;;;;;;;5.30;99.90;;;;;;5076694;28;19939;-78
2023/05/04 03:09:00;;;;;;;;;;;5.30;99.90;;;;;;5075186;28;19939;-79
2023/05/04 03:11:26;;;;;;;;;;;5.40;99.90;;;;;;5092815;28;19925;-79
2023/05/04 03:13:52;;;;;;;;;;;5.40;99.90;;;;;;5093670;28;19925;-78
2023/05/04 03:16:17;;;;;;;;;;;5.40;99.90;;;;;;5094804;28;19970;-78
2023/05/04 03:18:43;;;;;;;;;;;5.40;99.90;;;;;;5091824;28;19978;-78
2023/05/04 03:21:08;;;;;;;;;;;5.40;99.90;;;;;;5094805;28;19931;-78
2023/05/04 03:23:35;;;;;;;;;;;5.40;99.90;;;;;;5056131;28;19963;-79
2023/05/04 03:26:00;;;;;;;;;;;5.40;99.90;;;;;;5059003;28;20019;-78
2023/05/04 03:28:26;;;;;;;;;;;5.40;99.90;;;;;;5058966;28;20009;-79
2023/05/04 03:30:51;;;;;;;;;;;5.40;99.90;;;;;;5075566;28;20400;-79
2023/05/04 03:33:17;;;;;;;;;;;5.40;99.90;;;;;;5094222;28;19948;-79
2023/05/04 03:35:42;;;;;;;;;;;5.40;99.90;;;;;;5074910;28;19972;-79
2023/05/04 03:38:09;;;;;;;;;;;5.40;99.90;;;;;;5060264;28;19995;-78
2023/05/04 03:40:34;;;;;;;;;;;5.40;99.90;;;;;;5074416;28;20399;-79
2023/05/04 03:43:00;;;;;;;;;;;5.40;99.90;;;;;;5076231;28;19971;-79
2023/05/04 03:45:29;;;;;;;;;;;5.40;99.90;;;;;;5075023;28;19930;-78
2023/05/04 03:47:54;;;;;;;;;;;5.40;99.90;;;;;;5040355;28;20292;-79
2023/05/04 03:50:21;;;;;;;;;;;5.40;99.90;;;;;;5036617;28;19932;-78
2023/05/04 03:52:46;;;;;;;;;;;5.40;99.90;;;;;;5090869;28;19964;-78
2023/05/04 03:55:12;;;;;;;;;;;5.50;99.90;;;;;;5076005;28;19932;-78
2023/05/04 03:57:37;;;;;;;;;;;5.40;99.90;;;;;;5057827;28;20360;-78
2023/05/04 04:00:04;;;;;;;;;;;5.40;99.90;;;;;;5092167;28;20061;-79
2023/05/04 04:02:30;;;;;;;;;;;5.40;99.90;;;;;;5075032;28;19924;-78
2023/05/04 04:04:56;;;;;;;;;;;5.40;99.90;;;;;;5092459;28;19931;-79
2023/05/04 04:07:21;;;;;;;;;;;5.40;99.90;;;;;;5092308;28;19932;-79
2023/05/04 04:09:47;;;;;;;;;;;5.40;99.90;;;;;;5072895;28;20290;-78
2023/05/04 04:12:14;;;;;;;;;;;5.40;99.90;;;;;;5075375;28;20115;-79
2023/05/04 04:14:40;;;;;;;;;;;5.40;99.90;;;;;;5075652;28;20272;-79
2023/05/04 04:17:06;;;;;;;;;;;5.40;99.90;;;;;;5076151;28;20452;-78
2023/05/04 04:19:31;;;;;;;;;;;5.40;99.90;;;;;;5060319;28;20427;-79
2023/05/04 04:21:58;;;;;;;;;;;5.40;99.90;;;;;;5075480;28;19925;-79
2023/05/04 04:24:24;;;;;;;;;;;5.40;99.90;;;;;;5077281;28;19924;-79
2023/05/04 04:26:50;;;;;;;;;;;5.50;99.90;;;;;;5058892;28;19928;-79
2023/05/04 04:29:16;;;;;;;;;;;5.40;99.90;;;;;;5077602;28;19931;-79
2023/05/04 04:31:42;;;;;;;;;;;5.50;99.90;;;;;;5058027;28;19947;-79
2023/05/04 04:34:07;;;;;;;;;;;5.50;99.90;;;;;;5094209;28;20003;-79
2023/05/04 04:36:33;;;;;;;;;;;5.50;99.90;;;;;;5076072;28;19928;-79
2023/05/04 04:38:59;;;;;;;;;;;5.50;99.90;;;;;;5093940;28;19925;-79
2023/05/04 04:41:24;;;;;;;;;;;5.60;99.90;;;;;;5076367;28;19924;-79
2023/05/04 04:43:50;;;;;;;;;;;5.60;99.90;;;;;;5092930;28;19928;-79
2023/05/04 04:46:16;;;;;;;;;;;5.60;99.90;;;;;;5088039;28;19924;-79
2023/05/04 04:48:41;;;;;;;;;;;5.60;99.90;;;;;;5075140;28;19988;-79
2023/05/04 04:51:11;;;;;;;;;;;5.60;99.90;;;;;;5076419;28;19928;-79
2023/05/04 04:53:37;;;;;;;;;;;5.60;99.90;;;;;;5093874;28;19928;-79
2023/05/04 04:56:02;;;;;;;;;;;5.70;99.90;;;;;;5058371;28;19924;-79
2023/05/04 04:58:28;;;;;;;;;;;5.70;99.90;;;;;;5076869;28;19971;-78
2023/05/04 05:00:54;;;;;;;;;;;5.70;99.90;;;;;;5075803;28;19925;-79
2023/05/04 05:03:20;;;;;;;;;;;5.70;99.90;;;;;;5094444;28;20276;-79
2023/05/04 05:05:46;;;;;;;;;;;5.80;99.90;;;;;;5069993;28;19951;-79
2023/05/04 05:08:11;;;;;;;;;;;5.80;99.90;;;;;;5080041;28;19967;-79
2023/05/04 05:10:37;;;;;;;;;;;5.90;99.90;;;;;;5077777;28;19955;-79
2023/05/04 05:13:03;;;;;;;;;;;5.90;99.90;;;;;;5080900;28;19931;-78
2023/05/04 05:15:29;;;;;;;;;;;6.00;99.90;;;;;;5061392;28;20424;-78
2023/05/04 05:17:55;;;;;;;;;;;6.10;99.90;;;;;;5062825;28;19986;-78
2023/05/04 05:20:20;;;;;;;;;;;6.20;99.90;;;;;;5063473;28;19963;-78
2023/05/04 05:22:46;;;;;;;;;;;6.20;99.90;;;;;;5096916;28;19950;-78
2023/05/04 05:25:12;;;;;;;;;;;6.30;99.90;;;;;;5094854;28;19936;-78
2023/05/04 05:27:37;;;;;;;;;;;6.30;99.90;;;;;;5095261;28;19925;-78
2023/05/04 05:30:04;;;;;;;;;;;6.30;99.90;;;;;;5078797;28;20457;-79
2023/05/04 05:32:29;;;;;;;;;;;6.40;99.90;;;;;;5079904;28;19931;-78
2023/05/04 05:34:55;;;;;;;;;;;6.50;99.90;;;;;;5078511;28;19924;-78
2023/05/04 05:37:21;;;;;;;;;;;6.60;99.90;;;;;;5097776;28;19928;-78
2023/05/04 05:39:46;;;;;;;;;;;6.80;99.90;;;;;;5061081;28;20451;-78
2023/05/04 05:42:12;;;;;;;;;;;6.90;99.90;;;;;;5060975;28;19984;-78
2023/05/04 05:44:37;;;;;;;;;;;7.10;99.90;;;;;;5076757;28;19964;-78
2023/05/04 05:47:04;;;;;;;;;;;7.30;99.90;;;;;;5060077;28;19939;-78
2023/05/04 05:49:29;;;;;;;;;;;7.50;99.90;;;;;;5086754;28;19946;-78
2023/05/04 05:51:55;;;;;;;;;;;7.50;99.90;;;;;;5039117;28;19932;-78
2023/05/04 05:54:25;;;;;;;;;;;7.60;99.90;;;;;;5057222;28;19974;-78
2023/05/04 05:56:50;;;;;;;;;;;7.60;99.90;;;;;;5075129;28;19966;-78
2023/05/04 05:59:16;;;;;;;;;;;7.60;99.90;;;;;;5067329;28;20344;-78
2023/05/04 06:01:41;;;;;;;;;;;7.60;99.90;;;;;;5089519;28;20310;-78
2023/05/04 06:04:07;;;;;;;;;;;7.70;99.90;;;;;;5057892;28;19999;-78
2023/05/04 06:06:33;;;;;;;;;;;7.80;99.90;;;;;;5074358;28;20439;-78
2023/05/04 06:08:59;;;;;;;;;;;8.00;99.90;;;;;;5039894;28;19939;-77
2023/05/04 06:11:27;;;;;;;;;;;8.20;99.90;;;;;;5073095;28;19928;-78
2023/05/04 06:13:53;;;;;;;;;;;8.30;99.90;;;;;;5057317;28;19924;-78
2023/05/04 06:16:18;;;;;;;;;;;8.40;99.90;;;;;;5073051;28;19970;-78
2023/05/04 06:18:44;;;;;;;;;;;8.60;99.90;;;;;;5089274;28;19933;-78
2023/05/04 06:21:10;;;;;;;;;;;8.70;99.90;;;;;;5074433;28;19966;-78
2023/05/04 06:23:36;;;;;;;;;;;8.80;99.90;;;;;;5057272;28;20019;-78
2023/05/04 06:26:04;;;;;;;;;;;8.90;99.90;;;;;;5060013;28;19936;-79
2023/05/04 06:28:30;;;;;;;;;;;9.00;99.90;;;;;;5072829;28;19972;-78
2023/05/04 06:30:56;;;;;;;;;;;9.30;99.90;;;;;;5089286;28;19925;-78
2023/05/04 06:33:21;;;;;;;;;;;9.60;99.90;;;;;;5055677;28;19935;-78
2023/05/04 06:35:47;;;;;;;;;;;10.00;99.90;;;;;;5088569;28;19946;-78
2023/05/04 06:38:12;;;;;;;;;;;10.40;99.90;;;;;;5056953;28;19928;-79
2023/05/04 06:40:38;;;;;;;;;;;10.90;99.90;;;;;;5039941;28;19929;-78
2023/05/04 06:43:04;;;;;;;;;;;11.20;99.90;;;;;;5038464;28;19924;-78
2023/05/04 06:45:29;;;;;;;;;;;11.50;99.90;;;;;;5089168;28;19932;-78
2023/05/04 06:47:55;;;;;;;;;;;11.50;99.90;;;;;;5090031;28;20367;-79
2023/05/04 06:50:22;;;;;;;;;;;11.50;99.90;;;;;;5071779;28;19925;-78
2023/05/04 06:52:48;;;;;;;;;;;11.50;99.90;;;;;;5089393;28;19955;-78
2023/05/04 06:55:13;;;;;;;;;;;11.50;99.90;;;;;;5057591;28;19924;-79
2023/05/04 06:57:39;;;;;;;;;;;11.40;99.90;;;;;;5087574;28;19932;-78
2023/05/04 07:00:05;;;;;;;;;;;11.10;99.90;;;;;;5039353;28;19936;-79
2023/05/04 07:02:31;;;;;;;;;;;11.00;99.90;;;;;;5072527;28;19934;-79
2023/05/04 07:04:56;;;;;;;;;;;11.10;99.90;;;;;;5085182;28;19987;-78
2023/05/04 07:07:22;;;;;;;;;;;11.20;99.90;;;;;;5042176;28;19925;-79
2023/05/04 07:09:49;;;;;;;;;;;11.40;99.90;;;;;;5069503;28;19931;-79
2023/05/04 07:12:15;;;;;;;;;;;11.40;99.90;;;;;;5089273;28;21690;-79
2023/05/04 07:14:40;;;;;;;;;;;11.50;99.90;;;;;;5069723;28;19931;-79
2023/05/04 07:17:08;;;;;;;;;;;11.60;99.90;;;;;;5044250;28;19935;-79
2023/05/04 07:19:34;;;;;;;;;;;11.70;99.90;;;;;;5088572;28;19931;-79
2023/05/04 07:22:00;;;;;;;;;;;11.80;99.90;;;;;;5072601;28;19945;-79
2023/05/04 07:24:29;;;;;;;;;;;11.90;99.90;;;;;;5048209;28;19976;-79
2023/05/04 07:26:55;;;;;;;;;;;11.90;99.90;;;;;;5060602;28;19925;-79
2023/05/04 07:29:20;;;;;;;;;;;12.10;99.90;;;;;;5077888;28;20512;-78
2023/05/04 07:31:46;;;;;;;;;;;12.30;99.90;;;;;;5108796;28;19925;-77
2023/05/04 07:34:11;;;;;;;;;;;12.40;99.90;;;;;;5072279;28;19928;-78
2023/05/04 07:36:37;;;;;;;;;;;12.60;99.90;;;;;;5089730;28;20454;-83
2023/05/04 07:39:03;;;;;;;;;;;12.70;99.90;;;;;;5057691;28;19934;-83
2023/05/04 07:41:28;;;;;;;;;;;12.90;99.90;;;;;;5072147;28;21566;-82
2023/05/04 07:43:54;;;;;;;;;;;13.00;99.90;;;;;;5090952;28;20015;-81
2023/05/04 07:46:19;;;;;;;;;;;13.40;99.90;;;;;;5044145;28;19924;-83
2023/05/04 07:48:45;;;;;;;;;;;13.70;99.90;;;;;;5060376;28;19946;-81
2023/05/04 07:51:11;;;;;;;;;;;13.80;99.90;;;;;;5095029;28;20098;-82
2023/05/04 07:53:37;;;;;;;;;;;14.00;99.90;;;;;;5069444;28;19954;-81
2023/05/04 07:56:10;;;;;;;;;;;14.10;99.90;;;;;;5053369;28;20411;-82
2023/05/04 07:58:36;;;;;;;;;;;14.20;99.90;;;;;;5041871;28;20521;-82
2023/05/04 08:01:01;;;;;;;;;;;14.30;99.90;;;;;;5044085;28;19928;-82
2023/05/04 08:03:29;;;;;;;;;;;14.40;99.90;;;;;;5075728;28;19931;-82
2023/05/04 08:05:55;;;;;;;;;;;14.50;99.90;;;;;;5060467;28;19959;-82
2023/05/04 08:08:21;;;;;;;;;;;14.60;99.90;;;;;;5092704;28;19924;-82
2023/05/04 08:10:46;;;;;;;;;;;14.90;99.90;;;;;;5043091;28;20032;-81
2023/05/04 08:13:12;;;;;;;;;;;15.30;99.90;;;;;;5072511;28;20361;-82
2023/05/04 08:15:38;;;;;;;;;;;15.40;99.90;;;;;;5077554;28;19924;-82
2023/05/04 08:18:03;;;;;;;;;;;15.50;99.20;;;;;;5092442;28;19980;-82
2023/05/04 08:20:29;;;;;;;;;;;15.70;99.90;;;;;;5094604;28;19924;-82
2023/05/04 08:22:54;;;;;;;;;;;16.00;99.90;;;;;;5059081;28;19928;-82
2023/05/04 08:25:21;;;;;;;;;;;16.30;95.80;;;;;;5076004;28;19924;-79
2023/05/04 08:27:47;;;;;;;;;;;16.40;95.80;;;;;;5079298;28;20436;-79
2023/05/04 08:30:13;;;;;;;;;;;16.50;95.30;;;;;;5059065;28;19928;-80
2023/05/04 08:32:38;;;;;;;;;;;16.40;98.10;;;;;;5076573;28;19967;-81
2023/05/04 08:35:05;;;;;;;;;;;16.50;94.70;;;;;;5076234;28;19924;-81
2023/05/04 08:37:31;;;;;;;;;;;16.40;94.10;;;;;;5090679;28;20036;-81
2023/05/04 08:39:56;;;;;;;;;;;16.40;92.40;;;;;;5093204;28;19925;-81
2023/05/04 08:42:30;;;;;;;;;;;16.30;97.60;;;;;;5076854;28;19960;-81
2023/05/04 08:44:56;;;;;;;;;;;16.20;94.50;;;;;;5077011;28;19934;-80
2023/05/04 08:47:22;;;;;;;;;;;16.20;96.90;;;;;;5093058;28;19935;-80
2023/05/04 08:49:48;;;;;;;;;;;16.20;97.20;;;;;;5074995;28;19932;-81
2023/05/04 08:52:14;;;;;;;;;;;16.30;96.50;;;;;;5073860;28;19974;-81
2023/05/04 08:54:42;;;;;;;;;;;16.50;95.70;;;;;;5074622;28;19924;-81
2023/05/04 08:57:08;;;;;;;;;;;16.60;92.90;;;;;;5084520;28;20307;-81
2023/05/04 08:59:35;;;;;;;;;;;16.60;91.10;;;;;;5058951;28;19992;-83
2023/05/04 09:02:01;;;;;;;;;;;16.70;92.30;;;;;;5055143;28;19928;-82
2023/05/04 09:04:27;;;;;;;;;;;16.90;93.80;;;;;;5066710;28;19939;-83
2023/05/04 09:06:52;;;;;;;;;;;16.90;92.10;;;;;;5094276;28;19967;-83
2023/05/04 09:09:20;;;;;;;;;;;16.90;94.30;;;;;;5076111;28;20383;-82
2023/05/04 09:11:46;;;;;;;;;;;16.80;96.60;;;;;;5061052;28;20298;-84
2023/05/04 09:14:12;;;;;;;;;;;16.60;90.30;;;;;;5092064;28;19928;-83
2023/05/04 09:16:38;;;;;;;;;;;16.80;94.60;;;;;;5076143;28;20024;-83
2023/05/04 09:19:04;;;;;;;;;;;17.00;92.00;;;;;;5076593;28;19967;-83
2023/05/04 09:21:30;;;;;;;;;;;17.20;94.00;;;;;;5077066;28;19963;-82
2023/05/04 09:23:56;;;;;;;;;;;17.60;90.80;;;;;;5039499;28;20015;-82
2023/05/04 09:26:25;;;;;;;;;;;17.80;90.70;;;;;;5085315;28;20002;-82
2023/05/04 09:28:51;;;;;;;;;;;17.90;88.50;;;;;;5039925;28;19924;-82
2023/05/04 09:31:17;;;;;;;;;;;18.10;89.00;;;;;;5076102;28;19928;-82
2023/05/04 09:33:43;;;;;;;;;;;18.40;93.50;;;;;;5076164;28;20431;-84
2023/05/04 09:36:13;;;;;;;;;;;18.70;86.10;;;;;;5059614;28;19925;-84
2023/05/04 09:38:40;;;;;;;;;;;18.80;86.90;;;;;;5072368;28;19924;-84
2023/05/04 09:41:05;;;;;;;;;;;18.90;86.60;;;;;;5072133;28;19929;-84
2023/05/04 09:43:38;;;;;;;;;;;18.80;81.60;;;;;;5058024;28;19939;-83
2023/05/04 09:46:03;;;;;;;;;;;18.80;81.20;;;;;;5093228;28;19928;-83
2023/05/04 09:48:29;;;;;;;;;;;18.80;84.60;;;;;;5092752;28;20268;-83
2023/05/04 09:50:56;;;;;;;;;;;18.80;80.10;;;;;;5076301;28;19935;-83
2023/05/04 09:53:28;;;;;;;;;;;19.00;82.30;;;;;;5090748;28;20767;-83
2023/05/04 09:55:57;;;;;;;;;;;19.30;83.00;;;;;;5070388;28;19931;-83
2023/05/04 09:58:23;;;;;;;;;;;19.40;81.60;;;;;;5094959;28;20387;-83
2023/05/04 10:00:49;;;;;;;;;;;19.50;82.50;;;;;;5054499;28;19933;-82
2023/05/04 10:03:14;;;;;;;;;;;19.30;80.70;;;;;;5076426;28;19924;-81
2023/05/04 10:05:40;;;;;;;;;;;19.40;80.20;;;;;;5074275;28;19924;-77
2023/05/04 10:08:06;;;;;;;;;;;19.40;78.30;;;;;;5079468;28;19950;-80
2023/05/04 10:10:33;;;;;;;;;;;19.40;80.80;;;;;;5059737;28;19968;-83
2023/05/04 10:12:59;;;;;;;;;;;19.40;81.10;;;;;;5061063;28;19925;-84
2023/05/04 10:15:25;;;;;;;;;;;19.40;76.10;;;;;;5074779;28;20296;-81
2023/05/04 10:18:06;;;;;;;;;;;19.30;78.80;;;;;;5095610;28;19925;-80
2023/05/04 10:20:38;;;;;;;;;;;19.30;77.90;;;;;;5096309;28;19928;-81
2023/05/04 10:23:22;;;;;;;;;;;19.30;76.20;;;;;;5091764;28;19936;-77
2023/05/04 10:25:52;;;;;;;;;;;19.30;71.40;;;;;;5092681;28;19925;-79
2023/05/04 10:28:36;;;;;;;;;;;19.20;73.20;;;;;;5086828;28;19924;-81
2023/05/04 10:31:03;;;;;;;;;;;19.20;73.20;;;;;;5071184;28;19939;-77
2023/05/04 10:33:38;;;;;;;;;;;19.10;69.40;;;;;;5078109;28;20447;-77
2023/05/04 10:36:04;;;;;;;;;;;19.00;74.80;;;;;;5108928;28;19968;-77
2023/05/04 10:38:34;;;;;;;;;;;19.00;77.00;;;;;;5095618;28;19924;-77
2023/05/04 10:40:59;;;;;;;;;;;19.10;74.90;;;;;;5075215;28;19950;-77
2023/05/04 10:43:27;;;;;;;;;;;19.10;69.70;;;;;;5074811;28;19928;-78
2023/05/04 10:45:56;;;;;;;;;;;19.00;70.60;;;;;;5076272;28;19928;-78
2023/05/04 10:48:31;;;;;;;;;;;19.00;74.00;;;;;;5093738;28;20440;-78
2023/05/04 10:50:57;;;;;;;;;;;19.10;72.80;;;;;;5054295;28;19933;-78
2023/05/04 10:53:30;;;;;;;;;;;19.20;73.10;;;;;;5085729;28;19970;-77
2023/05/04 10:55:55;;;;;;;;;;;19.10;73.00;;;;;;5055725;28;19932;-77
2023/05/04 10:58:26;;;;;;;;;;;19.20;74.10;;;;;;5069016;28;19932;-79
2023/05/04 11:00:52;;;;;;;;;;;19.40;72.20;;;;;;5052397;28;19951;-79
2023/05/04 11:03:17;;;;;;;;;;;19.50;71.60;;;;;;5088056;28;19924;-79
2023/05/04 11:05:49;;;;;;;;;;;19.60;73.20;;;;;;5043709;28;19935;-80
2023/05/04 11:08:19;;;;;;;;;;;19.70;72.90;;;;;;5080538;28;19933;-80
2023/05/04 11:10:48;;;;;;;;;;;19.90;71.10;;;;;;5076823;28;20343;-77
2023/05/04 11:13:15;;;;;;;;;;;20.10;71.20;;;;;;5051910;28;19976;-80
2023/05/04 11:15:47;;;;;;;;;;;20.30;69.90;;;;;;5085816;28;19924;-78
2023/05/04 11:18:13;;;;;;;;;;;20.50;71.10;;;;;;5049091;28;19941;-78
2023/05/04 11:20:39;;;;;;;;;;;20.60;70.80;;;;;;5101713;28;19925;-84
2023/05/04 11:23:08;;;;;;;;;;;20.70;67.90;;;;;;5084699;28;20289;-82
2023/05/04 11:25:36;;;;;;;;;;;20.70;66.20;;;;;;5053710;28;19924;-79
2023/05/04 11:28:02;;;;;;;;;;;20.60;64.40;;;;;;5033619;28;19933;-78
2023/05/04 11:30:34;;;;;;;;;;;20.70;65.20;;;;;;5074896;28;19925;-78
2023/05/04 11:33:00;;;;;;;;;;;20.70;67.70;;;;;;5060276;28;19947;-79
2023/05/04 11:35:26;;;;;;;;;;;20.60;65.10;;;;;;5057331;28;19925;-79
2023/05/04 11:37:52;;;;;;;;;;;20.60;67.10;;;;;;5090564;28;19972;-79
2023/05/04 11:40:19;;;;;;;;;;;20.40;61.60;;;;;;5092140;28;19928;-82
2023/05/04 11:42:45;;;;;;;;;;;20.20;63.00;;;;;;5057135;28;19924;-82
2023/05/04 11:45:18;;;;;;;;;;;20.10;62.00;;;;;;5091943;28;19970;-82
2023/05/04 11:47:44;;;;;;;;;;;20.00;62.30;;;;;;5053232;28;19935;-82
2023/05/04 11:50:11;;;;;;;;;;;20.00;63.00;;;;;;5070589;28;19928;-82
2023/05/04 11:52:39;;;;;;;;;;;20.00;64.80;;;;;;5064832;28;19995;-82
2023/05/04 11:55:08;;;;;;;;;;;20.00;62.50;;;;;;5066588;28;19924;-84
2023/05/04 11:57:36;;;;;;;;;;;20.10;65.00;;;;;;5066317;28;19960;-85
2023/05/04 12:00:05;;;;;;;;;;;20.10;66.30;;;;;;5083833;28;19928;-87
2023/05/04 12:02:31;;;;;;;;;;;20.30;64.40;;;;;;5089235;28;19938;-85
2023/05/04 12:04:57;;;;;;;;;;;20.50;66.50;;;;;;5038748;28;19925;-87
2023/05/04 12:07:23;;;;;;;;;;;20.60;63.90;;;;;;5063853;28;19925;-85
2023/05/04 12:09:49;;;;;;;;;;;20.70;64.90;;;;;;5072521;28;19935;-86
2023/05/04 12:12:17;;;;;;;;;;;20.70;61.10;;;;;;5074579;28;20046;-89
2023/05/04 12:14:49;;;;;;;;;;;20.60;62.80;;;;;;5093299;28;19974;-85
2023/05/04 12:17:15;;;;;;;;;;;20.40;58.80;;;;;;5091736;28;19928;-85
2023/05/04 12:19:54;;;;;;;;;;;20.30;59.90;;;;;;5074724;28;19960;-85
2023/05/04 12:22:31;;;;;;;;;;;20.30;61.10;;;;;;5058370;28;19931;-86
2023/05/04 12:24:57;;;;;;;;;;;20.50;62.10;;;;;;5080834;28;19924;-83
2023/05/04 12:27:23;;;;;;;;;;;20.60;62.80;;;;;;5056102;28;19924;-84
2023/05/04 12:29:49;;;;;;;;;;;20.80;61.10;;;;;;5040725;28;19947;-83
2023/05/04 12:32:14;;;;;;;;;;;20.90;62.60;;;;;;5038082;28;19935;-83
2023/05/04 12:34:40;;;;;;;;;;;21.10;60.30;;;;;;5054595;28;20398;-83
2023/05/04 12:37:05;;;;;;;;;;;21.10;60.00;;;;;;5068094;28;20373;-82
2023/05/04 12:39:32;;;;;;;;;;;21.20;58.80;;;;;;5093811;28;19924;-81
2023/05/04 12:41:58;;;;;;;;;;;21.10;59.50;;;;;;5059248;28;19954;-81
2023/05/04 12:44:24;;;;;;;;;;;20.90;57.70;;;;;;5076737;28;20524;-81
2023/05/04 12:46:50;;;;;;;;;;;20.80;58.40;;;;;;5093729;28;19928;-81
2023/05/04 12:49:16;;;;;;;;;;;20.80;60.80;;;;;;5077396;28;19970;-81
2023/05/04 12:51:42;;;;;;;;;;;20.90;59.80;;;;;;5058213;28;20424;-81
2023/05/04 12:54:07;;;;;;;;;;;20.90;59.40;;;;;;5076795;28;19924;-81
2023/05/04 12:56:33;;;;;;;;;;;20.90;59.20;;;;;;5075980;28;20006;-78
2023/05/04 12:58:59;;;;;;;;;;;20.90;59.80;;;;;;5073528;28;19928;-83
2023/05/04 13:01:24;;;;;;;;;;;21.00;60.60;;;;;;5073833;28;20383;-83
2023/05/04 13:03:50;;;;;;;;;;;21.10;59.10;;;;;;5076165;28;19978;-84
2023/05/04 13:06:15;;;;;;;;;;;21.20;59.70;;;;;;5058336;28;19967;-84
2023/05/04 13:08:41;;;;;;;;;;;21.40;60.60;;;;;;5109825;28;19929;-84
2023/05/04 13:11:07;;;;;;;;;;;21.50;58.90;;;;;;5076428;28;20295;-82
2023/05/04 13:13:33;;;;;;;;;;;21.50;60.50;;;;;;5059070;28;19925;-81
2023/05/04 13:15:59;;;;;;;;;;;21.40;61.30;;;;;;5058269;28;20558;-82
2023/05/04 13:18:26;;;;;;;;;;;21.30;58.90;;;;;;5091524;28;19925;-82
2023/05/04 13:20:52;;;;;;;;;;;21.30;58.40;;;;;;5060002;28;19928;-82
2023/05/04 13:23:20;;;;;;;;;;;21.30;57.40;;;;;;5075474;28;19984;-82
2023/05/04 13:25:46;;;;;;;;;;;21.30;57.70;;;;;;5068146;28;19924;-83
2023/05/04 13:28:11;;;;;;;;;;;21.20;57.20;;;;;;5112308;28;19944;-82
2023/05/04 13:30:37;;;;;;;;;;;21.20;58.80;;;;;;5079447;28;20387;-82
2023/05/04 13:33:03;;;;;;;;;;;21.10;58.20;;;;;;5081038;28;19932;-82
2023/05/04 13:35:28;;;;;;;;;;;21.00;57.50;;;;;;5078601;28;19984;-84
2023/05/04 13:37:54;;;;;;;;;;;20.90;61.50;;;;;;5043710;28;19932;-86
2023/05/04 13:40:19;;;;;;;;;;;20.90;56.90;;;;;;5077424;28;19928;-84
2023/05/04 13:42:45;;;;;;;;;;;20.80;59.00;;;;;;5097450;28;19946;-83
2023/05/04 13:45:11;;;;;;;;;;;20.80;58.70;;;;;;5096490;28;19931;-83
2023/05/04 13:47:38;;;;;;;;;;;20.80;58.60;;;;;;5063482;28;19951;-79
2023/05/04 13:50:04;;;;;;;;;;;20.80;59.50;;;;;;5079743;28;19975;-83
2023/05/04 13:52:30;;;;;;;;;;;20.70;60.00;;;;;;5062914;28;19932;-84
2023/05/04 13:54:56;;;;;;;;;;;20.70;59.00;;;;;;5097627;28;19971;-84
2023/05/04 13:57:22;;;;;;;;;;;20.80;59.40;;;;;;5078613;28;20011;-82
2023/05/04 13:59:47;;;;;;;;;;;20.80;58.70;;;;;;5080202;28;19925;-83
2023/05/04 14:02:13;;;;;;;;;;;20.90;59.40;;;;;;5079500;28;19936;-82
2023/05/04 14:04:39;;;;;;;;;;;20.90;59.50;;;;;;5063299;28;19924;-81
2023/05/04 14:07:04;;;;;;;;;;;21.10;59.90;;;;;;5062353;28;19964;-81
2023/05/04 14:09:30;;;;;;;;;;;21.30;59.70;;;;;;5079328;28;19924;-78
2023/05/04 14:11:55;;;;;;;;;;;21.50;58.30;;;;;;5079852;28;19955;-78
2023/05/04 14:14:21;;;;;;;;;;;21.50;59.20;;;;;;5077679;28;19964;-81
2023/05/04 14:16:46;;;;;;;;;;;21.60;59.10;;;;;;5071035;28;19988;-85
2023/05/04 14:19:12;;;;;;;;;;;21.40;57.60;;;;;;5037814;28;19933;-78